Nearby METAR Reports

 

EGMC - Southend-On-Sea, United Kingdom
Distance from station: NE 10km
Updated: 02/04/2020 23:50
Clear
Clear
 Wind from WNW
Wind: WNW 6 mph , 9 km/h
Temperature: 9°C
Wind Chill: 7°C
Dew Point: 2°C
Humidity: 62%
Barometer: 1014 hPa
Summary: Clear
Visibility: greater than 7 miles , 10 km
2020/04/02 22:50 EGMC 022250Z 29005KT CAVOK 09/02 Q1014
EGLC - London City Airp, United Kingdom
Distance from station: W 37km
Updated: 02/04/2020 23:50
Overcast
Overcast
 Wind from WNW
Wind: WNW 7 mph , 11 km/h
Temperature: 11°C
Dew Point: 5°C
Humidity: 67%
Barometer: 1015 hPa
Clouds: Overcast
Visibility: 6 miles , 10 km
Cloud details: Mostly cloudy 823 m
Overcast 1158 m
2020/04/02 22:50 EGLC 022250Z AUTO 30006KT 270V340 9999 BKN027 OVC038 11/05 Q1015
EGKB - Biggin Hill, United Kingdom
Distance from station: WSW 45km
Updated: 02/04/2020 22:20
NOT Current
Few Clouds
Few Clouds
 Wind from W
Wind: W 9 mph , 15 km/h
Temperature: 9°C
Wind Chill: 7°C
Dew Point: 4°C
Humidity: 71%
Barometer: 1015 hPa
Clouds: Few Clouds
Visibility: 6 miles , 10 km
Cloud details: Few Clouds 914 m
2020/04/02 21:20 EGKB 022120Z 28008KT 250V330 9999 FEW030 09/04 Q1015
 
EGSS - Stansted Airport, United Kingdom
Distance from station: NNW 48km
Updated: 02/04/2020 23:50
Clear
Clear
 Wind from NW
Wind: NW 7 mph , 11 km/h
Temperature: 9°C
Wind Chill: 7°C
Dew Point: 2°C
Humidity: 62%
Barometer: 1014 hPa
Clouds: Clear
Visibility: 6 miles , 10 km
2020/04/02 22:50 EGSS 022250Z AUTO 31006KT 9999 NCD 09/02 Q1014
EGKK - London/Gatwick A, United Kingdom
Distance from station: SW 67km
Updated: 02/04/2020 23:50
Few Clouds
Few Clouds
 Wind from W
Wind: W 5 mph , 7 km/h
Temperature: 6°C
Wind Chill: 4°C
Dew Point: 4°C
Humidity: 87%
Barometer: 1015 hPa
Clouds: Few Clouds
Visibility: 6 miles , 10 km
Cloud details: Few Clouds 1067 m
2020/04/02 22:50 EGKK 022250Z 26004KT 9999 FEW035 06/04 Q1015
EGMD - Lydd Airport, United Kingdom
Distance from station: SSE 67km
Updated: 02/04/2020 23:50
Mostly cloudy
Mostly cloudy
 Wind from WNW
Wind: WNW 7 mph , 11 km/h
Temperature: 9°C
Wind Chill: 7°C
Dew Point: 6°C
Humidity: 82%
Barometer: 1015 hPa
Clouds: Mostly cloudy
Visibility: 6 miles , 10 km
Cloud details: Partly cloudy 1067 m
Mostly cloudy 1280 m
2020/04/02 22:50 EGMD 022250Z AUTO 29006KT 9999 SCT035/// BKN042/// 09/06 Q1015
 
EGWU - Northolt Raf, United Kingdom
Distance from station: W 69km
Updated: 02/04/2020 22:50
Mostly cloudy
Mostly cloudy
 Wind from WNW
Wind: WNW 7 mph , 11 km/h
Temperature: 9°C
Wind Chill: 7°C
Dew Point: 4°C
Humidity: 71%
Barometer: 1015 hPa
Clouds: Mostly cloudy
Visibility: 6 miles , 10 km
Cloud details: Partly cloudy 1006 m
Mostly cloudy 1524 m
2020/04/02 21:50 EGWU 022150Z AUTO 29006KT 9999 // SCT033/// BKN050/// 09/04 Q1015
EGLL - London/Heathrow, United Kingdom
Distance from station: W 72km
Updated: 02/04/2020 23:50
Clear
Clear
 Wind from W
Wind: W 8 mph , 13 km/h
Temperature: 7°C
Wind Chill: 5°C
Dew Point: 4°C
Humidity: 81%
Barometer: 1015 hPa
Clouds: Clear
Visibility: 6 miles , 10 km
2020/04/02 22:50 EGLL 022250Z AUTO 28007KT 9999 NCD 07/04 Q1015
EGUW - Wattisham Raf, United Kingdom
Distance from station: NNE 72km
Updated: 02/04/2020 22:50
Mostly cloudy
Mostly cloudy
 Wind from NW
Wind: NW 13 mph , 20 km/h
Temperature: 9°C
Wind Chill: 6°C
Dew Point: 2°C
Humidity: 62%
Barometer: 1013 hPa
Clouds: Mostly cloudy
Visibility: 6 miles , 10 km
Cloud details: Mostly cloudy 1524 m
2020/04/02 21:50 EGUW 022150Z AUTO 32011KT 9999 BKN050/// 09/02 Q1013
 
EGGW - Luton Airport, United Kingdom
Distance from station: WNW 76km
Updated: 02/04/2020 23:50
Clear
Clear
 Wind from NW
Wind: NW 10 mph , 17 km/h
Temperature: 8°C
Wind Chill: 5°C
Dew Point: 3°C
Humidity: 71%
Barometer: 1015 hPa
Clouds: Clear
Visibility: 6 miles , 10 km
2020/04/02 22:50 EGGW 022250Z AUTO 32009KT 9999 NCD 08/03 Q1015
EGSC - Cambridge, United Kingdom
Distance from station: NNW 81km
Updated: 01/04/2020 12:50
NOT Current
Mostly cloudy
Mostly cloudy
 Wind from W
Wind: W 8 mph , 13 km/h
Temperature: 8°C
Wind Chill: 6°C
Dew Point: 2°C
Humidity: 66%
Barometer: 1023 hPa
Clouds: Mostly cloudy
Visibility: 6 miles , 10 km
Cloud details: Few Clouds 792 m
Mostly cloudy 1463 m
2020/04/01 11:50 EGSC 011150Z 26007KT 210V300 9999 FEW026 BKN048 08/02 Q1023